TimeEST,TemperatureF,Dew PointF,Humidity,Sea Level PressureIn,VisibilityMPH,Wind Direction,Wind SpeedMPH,Gust SpeedMPH,PrecipitationIn,Events,Conditions,WindDirDegrees,DateUTC
12:56 AM,60.1,59.0,96,30.07,0.1,Calm,Calm,-,N/A,Fog,Fog,0,2012-12-09 05:56:00
1:41 AM,59.0,57.2,94,30.06,0.1,Calm,Calm,-,N/A,Fog,Fog,0,2012-12-09 06:41:00
1:48 AM,57.2,57.2,100,30.06,0.1,Calm,Calm,-,N/A,Fog,Fog,0,2012-12-09 06:48:00
1:56 AM,57.9,57.9,100,30.06,0.2,Calm,Calm,-,N/A,Fog,Fog,0,2012-12-09 06:56:00
2:35 AM,57.2,57.2,100,30.06,0.5,Calm,Calm,-,N/A,Fog,Fog,0,2012-12-09 07:35:00
2:48 AM,57.2,55.4,94,30.06,0.5,Calm,Calm,-,N/A,Fog,Fog,0,2012-12-09 07:48:00
2:56 AM,57.0,55.9,96,30.06,0.5,Calm,Calm,-,N/A,Fog,Fog,0,2012-12-09 07:56:00
3:19 AM,57.2,55.4,94,30.05,1.0,Calm,Calm,-,N/A,,Mostly Cloudy,0,2012-12-09 08:19:00
3:56 AM,55.9,55.0,97,30.05,1.0,Calm,Calm,-,N/A,,Mostly Cloudy,0,2012-12-09 08:56:00
4:12 AM,55.4,55.4,100,30.05,2.0,Calm,Calm,-,N/A,,Mostly Cloudy,0,2012-12-09 09:12:00
4:21 AM,55.4,53.6,94,30.05,6.0,Calm,Calm,-,N/A,,Scattered Clouds,0,2012-12-09 09:21:00
4:44 AM,55.4,55.4,100,30.05,7.0,Calm,Calm,-,N/A,,Mostly Cloudy,0,2012-12-09 09:44:00
4:56 AM,55.9,55.0,97,30.05,10.0,Calm,Calm,-,N/A,,Overcast,0,2012-12-09 09:56:00
5:06 AM,55.4,55.4,100,30.05,2.0,Calm,Calm,-,N/A,,Overcast,0,2012-12-09 10:06:00
5:10 AM,55.4,55.4,100,30.05,0.8,Calm,Calm,-,N/A,,Overcast,0,2012-12-09 10:10:00
5:14 AM,55.4,55.4,100,30.05,0.2,Calm,Calm,-,N/A,Fog,Fog,0,2012-12-09 10:14:00
5:51 AM,55.4,55.4,100,30.06,0.5,North,4.6,-,N/A,Fog,Fog,10,2012-12-09 10:51:00
5:56 AM,55.9,55.9,100,30.06,0.5,NNE,3.5,-,N/A,Fog,Fog,20,2012-12-09 10:56:00
6:56 AM,55.9,55.9,100,30.08,0.8,Calm,Calm,-,N/A,,Mostly Cloudy,0,2012-12-09 11:56:00
7:12 AM,55.4,55.4,100,30.08,0.2,North,3.5,-,N/A,Fog,Fog,10,2012-12-09 12:12:00
7:30 AM,57.2,55.4,94,30.08,0.8,Calm,Calm,-,N/A,,Overcast,0,2012-12-09 12:30:00
7:42 AM,57.2,55.4,94,30.09,1.0,Calm,Calm,-,N/A,,Mostly Cloudy,0,2012-12-09 12:42:00
7:52 AM,57.2,55.4,94,30.09,5.0,Calm,Calm,-,N/A,,Mostly Cloudy,0,2012-12-09 12:52:00
7:56 AM,57.0,57.0,100,30.09,2.0,Calm,Calm,-,N/A,,Mostly Cloudy,0,2012-12-09 12:56:00
8:30 AM,59.0,57.2,94,30.10,2.0,North,3.5,-,N/A,,Mostly Cloudy,360,2012-12-09 13:30:00
8:32 AM,59.0,57.2,94,30.10,1.0,North,3.5,-,N/A,,Mostly Cloudy,350,2012-12-09 13:32:00
8:56 AM,60.1,59.0,96,30.11,1.0,North,3.5,-,N/A,,Overcast,10,2012-12-09 13:56:00
9:56 AM,63.0,61.0,93,30.12,1.0,NNE,4.6,-,N/A,,Overcast,20,2012-12-09 14:56:00
10:56 AM,64.0,62.1,93,30.11,1.0,Calm,Calm,-,N/A,,Overcast,0,2012-12-09 15:56:00
11:09 AM,64.4,62.6,94,30.10,4.0,Calm,Calm,-,N/A,,Overcast,0,2012-12-09 16:09:00
11:53 AM,66.2,62.6,88,30.08,7.0,Calm,Calm,-,N/A,,Mostly Cloudy,0,2012-12-09 16:53:00
11:56 AM,66.9,64.0,90,30.09,7.0,Calm,Calm,-,N/A,,Mostly Cloudy,0,2012-12-09 16:56:00
12:14 PM,68.0,62.6,83,30.08,7.0,Calm,Calm,-,N/A,,Mostly Cloudy,0,2012-12-09 17:14:00
12:37 PM,69.8,64.4,83,30.07,6.0,Calm,Calm,-,0.00,Rain,Light Rain,0,2012-12-09 17:37:00
12:56 PM,70.0,64.9,84,30.06,6.0,ENE,4.6,-,0.00,,Haze,70,2012-12-09 17:56:00
1:42 PM,71.6,66.2,83,30.03,8.0,North,4.6,-,N/A,,Mostly Cloudy,360,2012-12-09 18:42:00
1:56 PM,73.9,66.0,76,30.04,10.0,North,4.6,-,N/A,,Mostly Cloudy,360,2012-12-09 18:56:00
2:24 PM,73.4,66.2,78,30.02,10.0,NE,3.5,-,N/A,,Mostly Cloudy,40,2012-12-09 19:24:00
2:51 PM,73.4,66.2,78,30.01,10.0,NE,4.6,-,N/A,,Mostly Cloudy,40,2012-12-09 19:51:00
2:56 PM,73.0,66.9,81,30.01,10.0,NNE,3.5,-,N/A,,Mostly Cloudy,30,2012-12-09 19:56:00
3:56 PM,73.0,66.9,81,30.02,10.0,NNE,3.5,-,N/A,,Mostly Cloudy,20,2012-12-09 20:56:00
4:06 PM,73.4,66.2,78,30.02,10.0,NNE,3.5,-,N/A,,Mostly Cloudy,30,2012-12-09 21:06:00
4:56 PM,71.1,68.0,90,30.02,10.0,NE,3.5,-,N/A,,Mostly Cloudy,50,2012-12-09 21:56:00
5:56 PM,69.1,66.9,93,30.04,10.0,NE,4.6,-,N/A,,Overcast,50,2012-12-09 22:56:00
6:05 PM,69.8,66.2,88,30.03,10.0,NE,3.5,-,N/A,,Overcast,40,2012-12-09 23:05:00
6:54 PM,68.0,66.2,94,30.04,4.0,ENE,3.5,-,N/A,,Mostly Cloudy,70,2012-12-09 23:54:00
6:56 PM,68.0,66.9,96,30.04,4.0,East,3.5,-,N/A,,Mostly Cloudy,80,2012-12-09 23:56:00
7:37 PM,66.2,66.2,100,30.04,1.5,East,4.6,-,N/A,,Mostly Cloudy,80,2012-12-10 00:37:00
7:50 PM,66.2,64.4,94,30.04,0.2,ESE,3.5,-,N/A,Fog,Fog,110,2012-12-10 00:50:00
7:51 PM,66.0,64.9,96,30.04,0.2,ESE,3.5,-,N/A,Fog,Fog,120,2012-12-10 00:51:00
7:56 PM,66.0,64.9,96,30.04,0.2,ESE,3.5,-,N/A,Fog,Fog,120,2012-12-10 00:56:00
8:53 PM,66.2,64.4,94,30.04,0.1,Calm,Calm,-,N/A,Fog,Fog,0,2012-12-10 01:53:00
8:56 PM,66.0,64.9,96,30.04,0.1,Calm,Calm,-,N/A,Fog,Fog,0,2012-12-10 01:56:00
9:56 PM,64.9,64.9,100,30.04,0.1,Calm,Calm,-,N/A,Fog,Fog,0,2012-12-10 02:56:00
10:56 PM,64.0,64.0,100,30.04,0.1,SSE,3.5,-,N/A,Fog,Fog,150,2012-12-10 03:56:00
11:56 PM,64.0,64.0,100,30.02,0.1,South,3.5,-,N/A,Fog,Fog,180,2012-12-10 04:56:00